createdAt,value
2017-05-17T00:00:09.299Z,21.22
2017-05-17T00:01:18.932Z,21.14
2017-05-17T00:02:28.879Z,21.16
2017-05-17T00:03:39.150Z,21.19
2017-05-17T00:04:49.432Z,21.14
2017-05-17T00:05:59.701Z,21.22
2017-05-17T00:07:09.660Z,21.17
2017-05-17T00:08:19.655Z,21.16
2017-05-17T00:09:29.620Z,21.21
2017-05-17T00:10:39.883Z,21.12
2017-05-17T00:11:50.160Z,21.21
2017-05-17T00:13:00.418Z,21.16
2017-05-17T00:14:10.375Z,21.1
2017-05-17T00:15:20.325Z,21.17
2017-05-17T00:16:30.586Z,21.17
2017-05-17T00:17:40.855Z,21.21
2017-05-17T00:18:50.814Z,21.16
2017-05-17T00:20:01.081Z,21.16
2017-05-17T00:21:10.399Z,21.16
2017-05-17T00:22:20.676Z,21.12
2017-05-17T00:23:30.632Z,21.06
2017-05-17T00:24:40.583Z,21.12
2017-05-17T00:25:50.851Z,21.09
2017-05-17T00:27:00.492Z,21.17
2017-05-17T00:28:10.765Z,21.16
2017-05-17T00:29:20.716Z,21.12
2017-05-17T00:30:30.672Z,21.21
2017-05-17T00:31:40.934Z,21.09
2017-05-17T00:32:50.883Z,21.16
2017-05-17T00:34:00.524Z,21.16
2017-05-17T00:35:10.790Z,21.09
2017-05-17T00:36:20.744Z,21.14
2017-05-17T00:37:30.693Z,21.06
2017-05-17T00:38:40.957Z,21.17
2017-05-17T00:39:50.927Z,21.07
2017-05-17T00:41:01.182Z,21.14
2017-05-17T00:42:11.444Z,21.1
2017-05-17T00:43:21.723Z,21.12
2017-05-17T00:44:31.990Z,21.14
2017-05-17T00:45:41.936Z,21.04
2017-05-17T00:46:51.884Z,21.09
2017-05-17T00:48:01.835Z,21.12
2017-05-17T00:49:11.477Z,21.09
2017-05-17T00:50:21.477Z,21.16
2017-05-17T00:51:31.750Z,21.1
2017-05-17T00:52:42.019Z,21.04
2017-05-17T00:53:52.279Z,21.06
2017-05-17T00:55:02.549Z,21.09
2017-05-17T00:56:11.875Z,21.1
2017-05-17T00:57:22.144Z,21.12
2017-05-17T00:58:32.101Z,21.16
2017-05-17T00:59:42.367Z,21.13
2017-05-17T01:00:52.632Z,21.09
2017-05-17T01:02:02.593Z,21.03
2017-05-17T01:03:12.864Z,21.14
2017-05-17T01:04:23.202Z,21.1
2017-05-17T01:05:33.475Z,21.14
2017-05-17T01:06:43.426Z,21.09
2017-05-17T01:07:53.697Z,21.06
2017-05-17T01:09:04.012Z,21.12
2017-05-17T01:10:13.975Z,21.06
2017-05-17T01:11:23.925Z,21.12
2017-05-17T01:12:33.871Z,21.12
2017-05-17T01:13:44.188Z,21.09
2017-05-17T01:14:54.152Z,21.07
2017-05-17T01:16:04.101Z,21.09
2017-05-17T01:17:14.099Z,21.12
2017-05-17T01:18:24.372Z,21.07
2017-05-17T01:19:34.320Z,21.06
2017-05-17T01:20:44.638Z,21.04
2017-05-17T01:21:54.905Z,21.09
2017-05-17T01:23:04.859Z,21.09
2017-05-17T01:24:15.134Z,21.13
2017-05-17T01:25:25.398Z,21.09
2017-05-17T01:26:35.667Z,21.12
2017-05-17T01:27:45.931Z,21.09
2017-05-17T01:28:56.203Z,21.1
2017-05-17T01:30:06.152Z,21.13
2017-05-17T01:31:16.106Z,21.07
2017-05-17T01:32:25.739Z,21.09
2017-05-17T01:33:36.065Z,21.07
2017-05-17T01:34:46.021Z,21.16
2017-05-17T01:35:55.660Z,21.06
2017-05-17T01:37:05.616Z,21.12
2017-05-17T01:38:15.565Z,21.09
2017-05-17T01:39:25.830Z,21.17
2017-05-17T01:40:36.109Z,21.13
2017-05-17T01:41:46.377Z,21.1
2017-05-17T01:42:56.328Z,21.1
2017-05-17T01:44:06.285Z,21.1
2017-05-17T01:45:15.931Z,21.1
2017-05-17T01:46:25.893Z,21.1
2017-05-17T01:47:36.157Z,21.12
2017-05-17T01:48:45.796Z,21.07
2017-05-17T01:49:55.751Z,21.1
2017-05-17T01:51:06.048Z,21.1
2017-05-17T01:52:16.310Z,21.09
2017-05-17T01:53:26.577Z,21.12
2017-05-17T01:54:36.862Z,21.1
2017-05-17T01:55:46.815Z,21.16
2017-05-17T01:56:56.768Z,21.07
2017-05-17T01:58:06.404Z,21.07
2017-05-17T01:59:16.357Z,21.14
2017-05-17T02:00:25.998Z,21.12
2017-05-17T02:01:35.954Z,21.06
2017-05-17T02:02:46.223Z,21.07
2017-05-17T02:03:56.516Z,21.09
2017-05-17T02:05:06.785Z,21.09
2017-05-17T02:06:17.053Z,21.1
2017-05-17T02:07:27.011Z,21.07
2017-05-17T02:08:36.963Z,21.09
2017-05-17T02:09:46.927Z,21.07
2017-05-17T02:10:56.882Z,21.09
2017-05-17T02:12:07.149Z,21.07
2017-05-17T02:13:17.410Z,21.04
2017-05-17T02:14:27.359Z,21.06
2017-05-17T02:15:37.315Z,21.07
2017-05-17T02:16:47.582Z,21.06
2017-05-17T02:17:57.853Z,21.12
2017-05-17T02:19:07.808Z,21.06
2017-05-17T02:20:17.136Z,21.06
2017-05-17T02:21:26.772Z,21.12
2017-05-17T02:22:37.039Z,21.04
2017-05-17T02:23:47.312Z,21.03
2017-05-17T02:24:57.585Z,21.06
2017-05-17T02:26:07.540Z,21.07
2017-05-17T02:27:17.486Z,21.04
2017-05-17T02:28:27.439Z,21.09
2017-05-17T02:29:37.701Z,21.09
2017-05-17T02:30:47.972Z,21.04
2017-05-17T02:31:58.236Z,21.07
2017-05-17T02:33:08.507Z,21.03
2017-05-17T02:34:18.143Z,21.06
2017-05-17T02:35:27.785Z,21.07
2017-05-17T02:36:37.423Z,21.03
2017-05-17T02:37:47.687Z,21.09
2017-05-17T02:38:57.945Z,21.04
2017-05-17T02:40:08.210Z,21.06
2017-05-17T02:41:18.474Z,21.03
2017-05-17T02:42:28.738Z,21.07
2017-05-17T02:43:38.693Z,21.03
2017-05-17T02:44:48.966Z,21.04
2017-05-17T02:45:59.231Z,21.04
2017-05-17T02:47:09.491Z,21.04
2017-05-17T02:48:19.444Z,21.04
2017-05-17T02:49:29.718Z,20.99
2017-05-17T02:50:39.358Z,21.03
2017-05-17T02:51:49.625Z,20.98
2017-05-17T02:52:59.585Z,21.07
2017-05-17T02:54:09.853Z,21.03
2017-05-17T02:55:19.179Z,21.04
2017-05-17T02:56:29.150Z,21.04
2017-05-17T02:57:39.103Z,21.04
2017-05-17T02:58:49.059Z,21.03
2017-05-17T02:59:59.328Z,21.03
2017-05-17T03:01:09.604Z,21.09
2017-05-17T03:02:19.865Z,21.06
2017-05-17T03:03:30.134Z,21.01
2017-05-17T03:04:40.085Z,20.94
2017-05-17T03:05:50.041Z,21.03
2017-05-17T03:06:59.995Z,21.07
2017-05-17T03:08:09.944Z,21.01
2017-05-17T03:09:19.897Z,20.99
2017-05-17T03:10:29.858Z,21.03
2017-05-17T03:11:40.122Z,21.06
2017-05-17T03:12:50.392Z,21.01
2017-05-17T03:14:00.660Z,20.99
2017-05-17T03:15:10.936Z,21.01
2017-05-17T03:16:20.888Z,21.04
2017-05-17T03:17:30.853Z,20.98
2017-05-17T03:18:41.131Z,21.01
2017-05-17T03:19:51.082Z,20.94
2017-05-17T03:21:01.347Z,20.97
2017-05-17T03:22:11.299Z,20.95
2017-05-17T03:23:21.252Z,20.95
2017-05-17T03:24:31.210Z,20.95
2017-05-17T03:25:41.481Z,21.03
2017-05-17T03:26:51.168Z,20.99
2017-05-17T03:28:01.122Z,20.98
2017-05-17T03:29:11.388Z,20.99
2017-05-17T03:30:21.343Z,21.04
2017-05-17T03:31:31.294Z,20.99
2017-05-17T03:32:41.565Z,20.95
2017-05-17T03:33:50.922Z,21.04
2017-05-17T03:35:00.914Z,20.99
2017-05-17T03:36:10.875Z,20.99
2017-05-17T03:37:21.141Z,20.95
2017-05-17T03:38:31.085Z,21.01
2017-05-17T03:39:40.744Z,20.94
2017-05-17T03:40:50.701Z,20.99
2017-05-17T03:42:00.971Z,21.01
2017-05-17T03:43:10.921Z,21.04
2017-05-17T03:44:21.193Z,21.06
2017-05-17T03:45:31.138Z,21.04
2017-05-17T03:46:41.406Z,21.04
2017-05-17T03:47:51.664Z,21.07
2017-05-17T03:49:01.925Z,21.06
2017-05-17T03:50:11.872Z,21.07
2017-05-17T03:51:21.824Z,21.03
2017-05-17T03:52:31.778Z,21.04
2017-05-17T03:53:42.057Z,21.03
2017-05-17T03:54:52.059Z,21.06
2017-05-17T03:56:02.010Z,21.04
2017-05-17T03:57:11.957Z,21.03
2017-05-17T03:58:22.225Z,21.04
2017-05-17T03:59:32.187Z,20.97
2017-05-17T04:00:42.459Z,21.09
2017-05-17T04:01:52.406Z,21.01
2017-05-17T04:03:02.680Z,21.09
2017-05-17T04:04:12.311Z,21.03
2017-05-17T04:05:22.582Z,21.01
2017-05-17T04:06:32.842Z,21.04
2017-05-17T04:07:43.129Z,21.01
2017-05-17T04:08:53.396Z,21.07
2017-05-17T04:10:02.794Z,20.98
2017-05-17T04:11:13.110Z,21.06
2017-05-17T04:12:23.372Z,21.07
2017-05-17T04:13:33.038Z,21.03
2017-05-17T04:14:42.684Z,21.07
2017-05-17T04:15:52.322Z,21.06
2017-05-17T04:17:02.274Z,21.12
2017-05-17T04:18:12.542Z,21.13
2017-05-17T04:19:22.492Z,21.09
2017-05-17T04:20:32.755Z,21.1
2017-05-17T04:21:43.028Z,21.06
2017-05-17T04:22:52.989Z,21.09
2017-05-17T04:24:03.263Z,21.04
2017-05-17T04:25:13.537Z,21.1
2017-05-17T04:26:23.491Z,21.1
2017-05-17T04:27:33.450Z,21.09
2017-05-17T04:28:43.405Z,21.14
2017-05-17T04:29:53.675Z,21.12
2017-05-17T04:31:03.942Z,21.17
2017-05-17T04:32:13.893Z,21.06
2017-05-17T04:33:23.846Z,21.14
2017-05-17T04:34:33.485Z,21.17
2017-05-17T04:35:43.438Z,21.22
2017-05-17T04:36:53.739Z,21.16
2017-05-17T04:38:03.694Z,21.19
2017-05-17T04:39:13.646Z,21.24
2017-05-17T04:40:23.593Z,21.25
2017-05-17T04:41:33.237Z,21.24
2017-05-17T04:42:43.499Z,21.24
2017-05-17T04:43:53.444Z,21.27
2017-05-17T04:45:03.710Z,21.16
2017-05-17T04:46:13.982Z,21.21
2017-05-17T04:47:23.955Z,21.19
2017-05-17T04:48:33.899Z,21.1
2017-05-17T04:49:43.536Z,21.21
2017-05-17T04:50:53.484Z,21.21
2017-05-17T04:52:03.750Z,21.13
2017-05-17T04:53:13.702Z,21.17
2017-05-17T04:54:23.976Z,21.21
2017-05-17T04:55:34.252Z,21.21
2017-05-17T04:56:44.201Z,21.17
2017-05-17T04:57:54.191Z,21.16
2017-05-17T04:59:04.455Z,21.16
2017-05-17T05:00:14.722Z,21.14
2017-05-17T05:01:24.985Z,21.17
2017-05-17T05:02:34.623Z,21.16
2017-05-17T05:03:44.886Z,21.22
2017-05-17T05:04:54.842Z,21.21
2017-05-17T05:06:05.111Z,21.24
2017-05-17T05:07:15.060Z,21.19
2017-05-17T05:08:25.322Z,21.21
2017-05-17T05:09:35.593Z,21.19
2017-05-17T05:10:45.857Z,21.13
2017-05-17T05:11:56.135Z,21.22
2017-05-17T05:13:06.400Z,21.17
2017-05-17T05:14:16.361Z,21.17
2017-05-17T05:15:26.000Z,21.24
2017-05-17T05:16:35.632Z,21.14
2017-05-17T05:17:45.901Z,21.24
2017-05-17T05:18:56.169Z,21.13
2017-05-17T05:20:06.117Z,21.22
2017-05-17T05:21:16.387Z,21.24
2017-05-17T05:22:26.656Z,21.17
2017-05-17T05:23:36.929Z,21.22
2017-05-17T05:24:46.888Z,21.19
2017-05-17T05:25:57.154Z,21.17
2017-05-17T05:27:07.415Z,21.22
2017-05-17T05:28:17.367Z,21.22
2017-05-17T05:29:27.636Z,21.16
2017-05-17T05:30:37.912Z,21.25
2017-05-17T05:31:48.169Z,21.24
2017-05-17T05:32:58.121Z,21.19
2017-05-17T05:34:08.388Z,21.27
2017-05-17T05:35:18.651Z,21.19
2017-05-17T05:36:28.612Z,21.19
2017-05-17T05:37:38.588Z,21.21
2017-05-17T05:38:48.863Z,21.27
2017-05-17T05:39:59.131Z,21.25
2017-05-17T05:41:09.086Z,21.19
2017-05-17T05:42:19.350Z,21.19
2017-05-17T05:43:29.313Z,21.24
2017-05-17T05:44:39.591Z,21.24
2017-05-17T05:45:49.857Z,21.22
2017-05-17T05:47:00.128Z,21.24
2017-05-17T05:48:10.092Z,21.19
2017-05-17T05:49:20.385Z,21.21
2017-05-17T05:50:30.650Z,21.27
2017-05-17T05:51:40.603Z,21.24
2017-05-17T05:52:50.559Z,21.21
2017-05-17T05:54:00.836Z,21.21
2017-05-17T05:55:11.112Z,21.25
2017-05-17T05:56:21.408Z,21.24
2017-05-17T05:57:31.353Z,21.28
2017-05-17T05:58:41.309Z,21.21
2017-05-17T05:59:51.573Z,21.24
2017-05-17T06:01:01.540Z,21.24
2017-05-17T06:02:11.490Z,21.28
2017-05-17T06:03:21.442Z,21.27
2017-05-17T06:04:31.703Z,21.24
2017-05-17T06:05:41.969Z,21.28
2017-05-17T06:06:51.931Z,21.27
2017-05-17T06:08:01.883Z,21.21
2017-05-17T06:09:11.839Z,21.32
2017-05-17T06:10:21.793Z,21.42
2017-05-17T06:11:32.055Z,21.38
2017-05-17T06:12:41.693Z,21.43
2017-05-17T06:13:51.962Z,21.29
2017-05-17T06:15:01.596Z,21.34
2017-05-17T06:16:11.855Z,21.37
2017-05-17T06:17:21.807Z,21.32
2017-05-17T06:18:31.450Z,21.34
2017-05-17T06:19:41.712Z,21.29
2017-05-17T06:20:51.667Z,21.27
2017-05-17T06:22:01.939Z,21.24
2017-05-17T06:23:11.584Z,21.31
2017-05-17T06:24:21.540Z,21.46
2017-05-17T06:25:31.179Z,21.38
2017-05-17T06:26:41.130Z,21.38
2017-05-17T06:27:50.768Z,21.38
2017-05-17T06:29:01.034Z,21.35
2017-05-17T06:30:10.989Z,21.38
2017-05-17T06:31:21.255Z,21.34
2017-05-17T06:32:31.208Z,21.46
2017-05-17T06:33:41.480Z,21.46
2017-05-17T06:34:51.745Z,21.46
2017-05-17T06:36:01.699Z,21.5
2017-05-17T06:37:11.336Z,21.54
2017-05-17T06:38:21.290Z,21.58
2017-05-17T06:39:30.931Z,21.5
2017-05-17T06:40:40.891Z,21.59
2017-05-17T06:41:50.531Z,21.52
2017-05-17T06:43:00.490Z,21.58
2017-05-17T06:44:10.768Z,21.58
2017-05-17T06:45:20.723Z,21.56
2017-05-17T06:46:30.369Z,21.67
2017-05-17T06:47:40.637Z,21.64
2017-05-17T06:48:50.899Z,21.65
2017-05-17T06:50:01.177Z,21.61
2017-05-17T06:51:11.453Z,21.65
2017-05-17T06:52:21.097Z,21.65
2017-05-17T06:53:31.045Z,21.65
2017-05-17T06:54:41.322Z,21.62
2017-05-17T06:55:51.633Z,21.68
2017-05-17T06:57:01.950Z,21.64
2017-05-17T06:58:11.897Z,21.61
2017-05-17T06:59:21.863Z,21.68
2017-05-17T07:00:32.125Z,21.64
2017-05-17T07:01:42.079Z,21.69
2017-05-17T07:02:51.409Z,21.65
2017-05-17T07:04:01.056Z,21.65
2017-05-17T07:05:11.324Z,21.61
2017-05-17T07:06:20.961Z,21.58
2017-05-17T07:07:31.219Z,21.72
2017-05-17T07:08:41.174Z,21.72
2017-05-17T07:09:51.194Z,21.74
2017-05-17T07:11:01.142Z,21.72
2017-05-17T07:12:10.782Z,21.79
2017-05-17T07:13:21.055Z,21.82
2017-05-17T07:14:31.325Z,21.75
2017-05-17T07:15:41.596Z,21.92
2017-05-17T07:16:51.236Z,21.94
2017-05-17T07:18:00.875Z,21.88
2017-05-17T07:19:11.139Z,21.96
2017-05-17T07:20:20.779Z,21.91
2017-05-17T07:21:31.055Z,21.84
2017-05-17T07:22:41.335Z,21.84
2017-05-17T07:23:50.980Z,21.82
2017-05-17T07:25:00.939Z,21.83
2017-05-17T07:26:10.895Z,21.8
2017-05-17T07:27:20.847Z,21.82
2017-05-17T07:28:30.525Z,21.79
2017-05-17T07:29:40.477Z,21.84
2017-05-17T07:30:50.425Z,21.88
2017-05-17T07:32:00.397Z,21.92
2017-05-17T07:33:10.352Z,21.92
2017-05-17T07:34:20.304Z,21.92
2017-05-17T07:35:29.935Z,21.88
2017-05-17T07:36:39.892Z,21.96
2017-05-17T07:37:49.534Z,21.92
2017-05-17T07:38:59.480Z,21.88
2017-05-17T07:40:09.430Z,22
2017-05-17T07:41:19.064Z,22.09
2017-05-17T07:42:28.698Z,22.03
2017-05-17T07:43:38.967Z,22.05
2017-05-17T07:44:48.917Z,22.02
2017-05-17T07:45:59.184Z,22.05
2017-05-17T07:47:08.817Z,22.03
2017-05-17T07:48:18.771Z,21.96
2017-05-17T07:49:28.721Z,22.12
2017-05-17T07:50:38.682Z,22.05
2017-05-17T07:51:48.635Z,22.07
2017-05-17T07:52:58.592Z,21.98
2017-05-17T07:54:08.859Z,21.94
2017-05-17T07:55:18.495Z,21.94
2017-05-17T07:56:28.758Z,21.86
2017-05-17T07:57:38.709Z,21.88
2017-05-17T07:58:48.655Z,21.84
2017-05-17T07:59:58.608Z,21.71
2017-05-17T08:01:08.560Z,21.84
2017-05-17T08:02:18.514Z,21.88
2017-05-17T08:03:28.780Z,21.83
2017-05-17T08:04:39.046Z,21.82
2017-05-17T08:05:49.316Z,21.8
2017-05-17T08:06:59.271Z,21.79
2017-05-17T08:08:09.226Z,21.79
2017-05-17T08:09:18.864Z,21.79
2017-05-17T08:10:29.135Z,21.84
2017-05-17T08:11:39.398Z,21.79
2017-05-17T08:12:49.347Z,21.84
2017-05-17T08:13:58.677Z,21.79
2017-05-17T08:15:08.946Z,21.75
2017-05-17T08:16:19.210Z,21.83
2017-05-17T08:17:29.213Z,21.72
2017-05-17T08:18:39.165Z,21.79
2017-05-17T08:19:49.112Z,21.72
2017-05-17T08:20:59.392Z,21.74
2017-05-17T08:22:09.347Z,21.75
2017-05-17T08:23:19.628Z,21.79
2017-05-17T08:24:29.897Z,21.82
2017-05-17T08:25:40.160Z,21.8
2017-05-17T08:26:50.108Z,21.75
2017-05-17T08:28:00.373Z,21.75
2017-05-17T08:29:10.318Z,21.75
2017-05-17T08:30:20.576Z,21.74
2017-05-17T08:31:30.216Z,21.74
2017-05-17T08:32:40.167Z,21.72
2017-05-17T08:33:50.124Z,21.75
2017-05-17T08:34:59.763Z,21.71
2017-05-17T08:36:09.404Z,21.72
2017-05-17T08:37:19.362Z,21.79
2017-05-17T08:38:29.316Z,21.68
2017-05-17T08:39:39.280Z,21.74
2017-05-17T08:40:48.914Z,21.79
2017-05-17T08:41:58.865Z,21.74
2017-05-17T08:43:09.129Z,21.71
2017-05-17T08:44:18.779Z,21.67
2017-05-17T08:45:29.046Z,21.72
2017-05-17T08:46:39.311Z,21.74
2017-05-17T08:47:48.638Z,21.79
2017-05-17T08:48:58.609Z,21.75
2017-05-17T08:50:08.580Z,21.72
2017-05-17T08:51:18.544Z,21.71
2017-05-17T08:52:28.501Z,21.71
2017-05-17T08:53:38.467Z,21.69
2017-05-17T08:54:47.785Z,21.71
2017-05-17T08:55:57.425Z,21.72
2017-05-17T08:57:07.371Z,21.65
2017-05-17T08:58:17.640Z,21.72
2017-05-17T08:59:27.907Z,21.71
2017-05-17T09:00:36.921Z,21.71
2017-05-17T09:01:46.588Z,21.77
2017-05-17T09:02:56.857Z,21.75
2017-05-17T09:04:07.130Z,21.69
2017-05-17T09:05:17.078Z,21.68
2017-05-17T09:06:26.717Z,21.74
2017-05-17T09:07:36.692Z,21.68
2017-05-17T09:08:46.645Z,21.67
2017-05-17T09:09:56.599Z,21.69
2017-05-17T09:11:06.864Z,21.8
2017-05-17T09:12:17.186Z,21.65
2017-05-17T09:13:27.463Z,21.68
2017-05-17T09:14:37.417Z,21.67
2017-05-17T09:15:47.691Z,21.71
2017-05-17T09:16:57.654Z,21.72
2017-05-17T09:18:07.607Z,21.77
2017-05-17T09:19:17.563Z,21.82
2017-05-17T09:20:27.207Z,21.79
2017-05-17T09:21:37.159Z,21.84
2017-05-17T09:22:47.429Z,21.84
2017-05-17T09:23:57.696Z,21.84
2017-05-17T09:25:07.637Z,21.79
2017-05-17T09:26:17.598Z,21.82
2017-05-17T09:27:27.872Z,21.83
2017-05-17T09:28:37.513Z,21.83
2017-05-17T09:29:47.462Z,21.83
2017-05-17T09:30:57.740Z,21.84
2017-05-17T09:32:07.695Z,21.8
2017-05-17T09:33:17.966Z,21.79
2017-05-17T09:34:27.921Z,21.75
2017-05-17T09:35:37.562Z,21.74
2017-05-17T09:36:47.832Z,21.8
2017-05-17T09:37:58.103Z,21.8
2017-05-17T09:39:08.367Z,21.8
2017-05-17T09:40:18.329Z,21.79
2017-05-17T09:41:27.981Z,21.8
2017-05-17T09:42:37.935Z,21.82
2017-05-17T09:43:47.900Z,21.82
2017-05-17T09:44:58.175Z,21.79
2017-05-17T09:46:07.822Z,21.71
2017-05-17T09:47:17.829Z,21.77
2017-05-17T09:48:28.101Z,21.79
2017-05-17T09:49:38.057Z,21.74
2017-05-17T09:50:48.010Z,21.79
2017-05-17T09:51:58.278Z,21.77
2017-05-17T09:53:08.546Z,21.77
2017-05-17T09:54:17.873Z,21.82
2017-05-17T09:55:28.139Z,21.8
2017-05-17T09:56:37.773Z,21.88
2017-05-17T09:57:48.099Z,21.84
2017-05-17T09:58:58.373Z,21.84
2017-05-17T10:00:08.635Z,21.86
2017-05-17T10:01:18.899Z,21.9
2017-05-17T10:02:29.166Z,21.82
2017-05-17T10:03:39.119Z,21.9
2017-05-17T10:04:48.757Z,21.92
2017-05-17T10:05:58.393Z,21.96
2017-05-17T10:07:08.666Z,21.88
2017-05-17T10:08:18.938Z,21.88
2017-05-17T10:09:29.203Z,21.84
2017-05-17T10:10:39.150Z,21.79
2017-05-17T10:11:49.112Z,21.83
2017-05-17T10:12:59.387Z,21.82
2017-05-17T10:14:09.339Z,21.83
2017-05-17T10:15:18.983Z,21.86
2017-05-17T10:16:29.250Z,21.82
2017-05-17T10:17:38.889Z,21.9
2017-05-17T10:18:48.843Z,21.8
2017-05-17T10:19:58.802Z,21.9
2017-05-17T10:21:08.760Z,21.96
2017-05-17T10:22:18.711Z,21.91
2017-05-17T10:23:28.357Z,21.94
2017-05-17T10:24:38.304Z,22.06
2017-05-17T10:25:48.254Z,21.99
2017-05-17T10:26:57.944Z,21.96
2017-05-17T10:28:08.212Z,21.92
2017-05-17T10:29:17.859Z,21.96
2017-05-17T10:30:27.493Z,21.9
2017-05-17T10:31:37.440Z,21.94
2017-05-17T10:32:47.709Z,21.84
2017-05-17T10:33:57.975Z,21.94
2017-05-17T10:35:08.250Z,21.83
2017-05-17T10:36:18.527Z,21.8
2017-05-17T10:37:28.487Z,21.84
2017-05-17T10:38:38.754Z,21.91
2017-05-17T10:39:48.714Z,21.82
2017-05-17T10:40:58.670Z,21.91
2017-05-17T10:42:08.619Z,21.99
2017-05-17T10:43:18.895Z,21.99
2017-05-17T10:44:28.855Z,22.07
2017-05-17T10:45:39.115Z,21.94
2017-05-17T10:46:49.069Z,21.96
2017-05-17T10:47:59.034Z,21.92
2017-05-17T10:49:08.673Z,22.05
2017-05-17T10:50:18.955Z,21.92
2017-05-17T10:51:29.222Z,22.02
2017-05-17T10:52:39.540Z,22.03
2017-05-17T10:53:49.179Z,21.99
2017-05-17T10:54:59.446Z,21.9
2017-05-17T10:56:09.400Z,22.07
2017-05-17T10:57:19.035Z,22.05
2017-05-17T10:58:29.307Z,21.96
2017-05-17T10:59:39.580Z,22
2017-05-17T11:00:49.852Z,22
2017-05-17T11:01:59.807Z,22.05
2017-05-17T11:03:10.078Z,22.06
2017-05-17T11:04:20.035Z,22.02
2017-05-17T11:05:30.356Z,21.96
2017-05-17T11:06:40.640Z,21.91
2017-05-17T11:07:50.968Z,21.92
2017-05-17T11:09:00.926Z,21.91
2017-05-17T11:10:10.562Z,21.9
2017-05-17T11:11:20.514Z,21.91
2017-05-17T11:12:30.153Z,21.92
2017-05-17T11:13:40.108Z,21.98
2017-05-17T11:14:50.377Z,21.98
2017-05-17T11:16:00.328Z,21.99
2017-05-17T11:17:10.600Z,21.98
2017-05-17T11:18:20.874Z,21.98
2017-05-17T11:19:30.823Z,21.94
2017-05-17T11:20:40.774Z,21.98
2017-05-17T11:21:50.101Z,21.96
2017-05-17T11:23:00.359Z,21.94
2017-05-17T11:24:10.312Z,21.99
2017-05-17T11:25:20.317Z,21.9
2017-05-17T11:26:30.603Z,21.94
2017-05-17T11:27:40.872Z,21.99
2017-05-17T11:28:50.825Z,21.9
2017-05-17T11:30:00.485Z,21.92
2017-05-17T11:31:10.437Z,21.99
2017-05-17T11:32:20.072Z,21.92
2017-05-17T11:33:30.341Z,21.94
2017-05-17T11:34:39.983Z,21.84
2017-05-17T11:35:50.246Z,21.92
2017-05-17T11:37:00.197Z,21.94
2017-05-17T11:38:09.519Z,21.99
2017-05-17T11:39:19.152Z,21.94
2017-05-17T11:40:28.789Z,21.92
2017-05-17T11:41:38.744Z,21.9
2017-05-17T11:42:49.010Z,21.99
2017-05-17T11:43:58.981Z,21.92
2017-05-17T11:45:08.626Z,21.99
2017-05-17T11:46:18.263Z,21.96
2017-05-17T11:47:27.909Z,21.98
2017-05-17T11:48:38.180Z,21.94
2017-05-17T11:49:48.150Z,21.88
2017-05-17T11:50:57.792Z,21.94
2017-05-17T11:52:07.112Z,21.92
2017-05-17T11:53:17.069Z,21.92
2017-05-17T11:54:27.026Z,21.92
2017-05-17T11:55:36.988Z,21.94
2017-05-17T11:56:46.316Z,22.03
2017-05-17T11:57:56.335Z,22.07
2017-05-17T11:59:06.600Z,22.03
2017-05-17T12:00:16.549Z,22
2017-05-17T12:01:26.501Z,22
2017-05-17T12:02:36.775Z,22.02
2017-05-17T12:03:46.736Z,22.06
2017-05-17T12:04:56.997Z,22.1
2017-05-17T12:06:06.972Z,22.02
2017-05-17T12:07:16.293Z,21.99
2017-05-17T12:08:26.563Z,22.07
2017-05-17T12:09:36.200Z,22
2017-05-17T12:10:46.497Z,22.07
2017-05-17T12:11:56.455Z,22.02
2017-05-17T12:13:06.095Z,22.06
2017-05-17T12:14:16.051Z,22
2017-05-17T12:15:26.017Z,22.02
2017-05-17T12:16:35.966Z,21.98
2017-05-17T12:17:45.928Z,21.9
2017-05-17T12:18:55.881Z,22.02
2017-05-17T12:20:06.148Z,21.98
2017-05-17T12:21:15.785Z,21.88
2017-05-17T12:22:26.049Z,22.02
2017-05-17T12:23:36.011Z,21.98
2017-05-17T12:24:45.655Z,21.9
2017-05-17T12:25:55.623Z,21.94
2017-05-17T12:27:05.274Z,21.92
2017-05-17T12:28:15.551Z,21.91
2017-05-17T12:29:25.519Z,21.92
2017-05-17T12:30:35.537Z,21.91
2017-05-17T12:31:45.492Z,21.88
2017-05-17T12:32:55.767Z,21.88
2017-05-17T12:34:06.035Z,21.92
2017-05-17T12:35:16.310Z,21.9
2017-05-17T12:36:26.575Z,21.88
2017-05-17T12:37:36.210Z,21.94
2017-05-17T12:38:46.478Z,21.98
2017-05-17T12:39:56.750Z,21.88
2017-05-17T12:41:06.704Z,21.9
2017-05-17T12:42:17.129Z,21.86
2017-05-17T12:43:26.769Z,21.92
2017-05-17T12:44:36.724Z,21.94
2017-05-17T12:45:46.678Z,21.92
2017-05-17T12:46:56.952Z,21.99
2017-05-17T12:48:07.230Z,21.94
2017-05-17T12:49:17.492Z,21.94
2017-05-17T12:50:27.763Z,21.88
2017-05-17T12:51:37.403Z,21.94
2017-05-17T12:52:47.667Z,22
2017-05-17T12:53:57.622Z,21.94
2017-05-17T12:55:07.886Z,21.92
2017-05-17T12:56:17.524Z,21.88
2017-05-17T12:57:27.803Z,21.91
2017-05-17T12:58:38.065Z,21.9
2017-05-17T12:59:48.020Z,21.91
2017-05-17T13:00:58.291Z,21.94
2017-05-17T13:02:08.242Z,21.94
2017-05-17T13:03:17.882Z,21.94
2017-05-17T13:04:27.521Z,21.94
2017-05-17T13:05:37.173Z,21.94
2017-05-17T13:06:47.436Z,21.94
2017-05-17T13:07:57.069Z,22.05
2017-05-17T13:09:06.715Z,22.06
2017-05-17T13:10:16.677Z,22
2017-05-17T13:11:26.627Z,22.07
2017-05-17T13:12:36.580Z,22.02
2017-05-17T13:13:46.849Z,22.03
2017-05-17T13:14:56.802Z,22.1
2017-05-17T13:16:07.077Z,22.12
2017-05-17T13:17:17.339Z,22.12
2017-05-17T13:18:26.979Z,22.17
2017-05-17T13:19:36.936Z,22.24
2017-05-17T13:20:46.576Z,22.21
2017-05-17T13:21:56.843Z,22.17
2017-05-17T13:23:07.106Z,22.15
2017-05-17T13:24:16.746Z,22.07
2017-05-17T13:25:27.024Z,22.05
2017-05-17T13:26:37.299Z,22.09
2017-05-17T13:27:47.572Z,22.12
2017-05-17T13:28:57.518Z,22.06
2017-05-17T13:30:07.789Z,22.03
2017-05-17T13:31:17.422Z,21.92
2017-05-17T13:32:27.379Z,22.03
2017-05-17T13:33:37.656Z,22.05
2017-05-17T13:34:47.292Z,22.02
2017-05-17T13:35:57.256Z,22.03
2017-05-17T13:37:07.204Z,21.91
2017-05-17T13:38:17.153Z,21.94
2017-05-17T13:39:26.798Z,21.9
2017-05-17T13:40:36.747Z,21.91
2017-05-17T13:41:46.700Z,21.92
2017-05-17T13:42:56.019Z,21.91
2017-05-17T13:44:05.985Z,21.91
2017-05-17T13:45:15.934Z,21.94
2017-05-17T13:46:25.258Z,21.91
2017-05-17T13:47:35.521Z,21.94
2017-05-17T13:48:45.799Z,21.9
2017-05-17T13:49:56.058Z,21.92
2017-05-17T13:51:06.017Z,21.94
2017-05-17T13:52:15.991Z,21.92
2017-05-17T13:53:25.965Z,21.86
2017-05-17T13:54:35.927Z,21.88
2017-05-17T13:55:45.878Z,21.92
2017-05-17T13:56:56.169Z,21.96
2017-05-17T13:58:06.125Z,21.96
2017-05-17T13:59:15.774Z,21.94
2017-05-17T14:00:25.730Z,21.94
2017-05-17T14:01:35.683Z,21.98
2017-05-17T14:02:45.010Z,21.99
2017-05-17T14:03:54.969Z,21.88
2017-05-17T14:05:04.294Z,21.92
2017-05-17T14:06:14.245Z,21.9
2017-05-17T14:07:23.885Z,21.98
2017-05-17T14:08:33.212Z,21.92
2017-05-17T14:09:43.173Z,21.94
2017-05-17T14:10:53.485Z,21.91
2017-05-17T14:12:03.446Z,21.91
2017-05-17T14:13:13.400Z,21.83
2017-05-17T14:14:23.670Z,21.82
2017-05-17T14:15:32.995Z,21.82
2017-05-17T14:16:43.258Z,21.88
2017-05-17T14:17:53.551Z,21.83
2017-05-17T14:19:02.881Z,21.82
2017-05-17T14:20:12.513Z,21.92
2017-05-17T14:21:22.465Z,21.86
2017-05-17T14:22:32.130Z,21.82
2017-05-17T14:23:42.105Z,21.96
2017-05-17T14:24:52.061Z,21.91
2017-05-17T14:26:02.022Z,21.94
2017-05-17T14:27:11.983Z,21.96
2017-05-17T14:28:21.625Z,22.06
2017-05-17T14:29:31.582Z,22.02
2017-05-17T14:30:41.854Z,22.06
2017-05-17T14:31:52.124Z,22.07
2017-05-17T14:33:02.445Z,22
2017-05-17T14:34:12.087Z,22.06
2017-05-17T14:35:21.726Z,22
2017-05-17T14:36:31.683Z,22
2017-05-17T14:37:41.639Z,22.05
2017-05-17T14:38:51.596Z,22.06
2017-05-17T14:40:01.880Z,22.07
2017-05-17T14:41:11.518Z,22
2017-05-17T14:42:21.476Z,21.92
2017-05-17T14:43:31.427Z,22.1
2017-05-17T14:44:41.703Z,22.02
2017-05-17T14:45:51.966Z,22.05
2017-05-17T14:47:01.915Z,22.07
2017-05-17T14:48:12.182Z,22.05
2017-05-17T14:49:21.822Z,22.05
2017-05-17T14:50:32.094Z,21.99
2017-05-17T14:51:42.353Z,22.02
2017-05-17T14:52:52.307Z,21.92
2017-05-17T14:54:02.579Z,22
2017-05-17T14:55:12.218Z,21.88
2017-05-17T14:56:22.168Z,21.98
2017-05-17T14:57:31.820Z,21.92
2017-05-17T14:58:42.088Z,21.96
2017-05-17T14:59:52.356Z,21.94
2017-05-17T15:01:02.000Z,22
2017-05-17T15:02:11.948Z,22.02
2017-05-17T15:03:21.579Z,22.09
2017-05-17T15:04:31.230Z,22.02